Toledo Express Airport
KTOL : now visible

Airfield :











YOU CAN JOIN US ON...

 
LOGIN :

Register | Disclaimer

   EN    FR    IT 

 









Legend :    VFR   Marginal VFR   IFR   Intensive IFR   Very Intensive IFR
Visi :
Ceiling :
>= 8 km
>= 3000ft
5 to 8 km
1000 to 3000 ft
1500m to 5 km
500 to 1000 ft
800 to 1500m
200 to 500 ft
< 800m
< 200 ft
Symbols :   Thunderstorms  Fog  Heavy snow  Heavy precipitations  Wind > 20 kt







- Airport Elevation : 683 ft
- IATA code : TOL


KTOL - Toledo Express

CURRENT METAR :
  • 201252Z 09013KT 1 1/4SM -SN FEW009 BKN014 OVC021 M03/M06 A3011 RMK AO2 SLP205 P0002 T10281056 $

EXPIRED METARs :
  • 201244Z 09015G21KT 1 1/4SM -SN BKN012 OVC021 M03/M06 A3010 RMK AO2 P0001 T10281056 $
  • 201211Z 08014G19KT 2SM -SN OVC024 M03/M06 A3017 RMK AO2 P0001 T10281056 $
  • 201152Z 08012KT 1 1/2SM -SN OVC018 M03/M06 A3019 RMK AO2 SLP232 P0002 60002 70002 T10281056 11022 21033 58034 $
  • 201139Z 08012KT 1 1/4SM -SN OVC019 M03/M06 A3019 RMK AO2 PRESFR P0001 T10281056 $
  • 201115Z 07014KT 1 1/2SM -SN OVC023 M03/M06 A3021 RMK AO2 PRESFR P0001 T10281061 $
  • 201100Z 07012KT 2 1/2SM -SN OVC027 M02/M07 A3023 RMK AO2 PRESFR P0000 T10221067 $
  • 201052Z 07009KT 4SM -SN OVC033 M02/M07 A3026 RMK AO2 SNB43 SLP253 P0000 T10221072 $

TAF KTOL
Valid from the 20 at 12:00 until the 21 at 12:00 UTC


201128Z 2012/2112 08010KT 1 1/2SM -SN OVC025
FM201700 10012G20KT 3SM -FZRASN BKN003 OVC025
FM202100 13008KT 3SM -RASN BKN003 OVC025
FM202300 17010KT 5SM -RA OVC003
FM210300 23012G20KT P6SM OVC008
KZOB FIR / North America



MET'MAP, your aeronautical weather chart ! - Copyright ORBIFLY December 2007 - Disclaimer

ORBIFLY MET'MAP TEAM :

Programming & Development : Alexandra Zaïnal
Concept & Development : Baudouin d'Aumeries
Co-Development & Prog : Marc-Olivier Méhu
Technical & hardware support : Manuel Goepfert

Contact : metmap@orbifly.com




SOURCES & CREDITS :

   NOAA       Earth
Advisory